Other Surface Observations
Issued by NWS Los Angeles, CA

Home | Current Version | Previous Version | Text Only | Print | Product List | Glossary On
Versions: 1 2 3 4 5 6 7 8 9 10 11
000
SXUS56 KLOX 041540
OSOLOX

OFFSHORE OIL PLATFORM IRENE WEATHER
NATIONAL WEATHER SERVICE OXNARD CA
735 AM PST WED MAR 04 2015

OBSERVATION FROM DRILLING RIG "IRENE"
LOCATION 34 DEG 37 MIN N...120 DEG 44 MIN W...30 MILES SW
OF SANTA MARIA...ANEMOMETER LOCATED 305 FEET ABOVE SEA LEVEL.

SPECI 041525Z 04008KT 10SM SKC BKN050 12/03 A3004 RMKS SEAS 4 TO 6
FEET

$$

JLD

















































































































































































































































































USA.gov is the U.S. government's official web portal to all federal, state and local government web resources and services.